Wing, Alabama
Current Conditions -  °F | °C
As of 3:30 PM on Sunday 23 Nov 2014 (Local Time) from K0J4 Reporting Station
Overcast Overcast  
Wind Chill: 18°   Ceiling: 900
Heat Index: 18°   Visibility: 10mi
Dew Point: 16°   Wind: 15mph
Humidity: 88%   Direction: 210°SSW
Pressure: 29.73"   Gusts: 21mph
Location:  31.03°N, 86.61°W
Report Text: K0J4 232130Z AUTO 21013G18KT 10SM BKN009 OVC013 18/16 A2973 RMK AO2 RAE14 CIG 006V012 P0000 $
Loading
Personal Weather Stations






























Interactive Weather Map New forecast layout! Learn more

10-Day Weather Forecast

Advertisements
Track Severe Weather on mobile